createdAt,value
2023-05-10T06:56:05.428Z,25.00
2023-05-10T06:57:08.909Z,25.00
2023-05-10T06:58:12.933Z,25.00
2023-05-10T06:59:05.449Z,25.00
2023-05-10T07:00:05.452Z,25.00
2023-05-10T07:01:05.469Z,25.00
2023-05-10T07:02:05.410Z,25.00
2023-05-10T07:03:06.053Z,25.00
2023-05-10T07:04:05.495Z,25.00
2023-05-10T07:05:05.507Z,25.00
2023-05-10T07:06:05.546Z,25.00
2023-05-10T07:07:05.569Z,25.00
2023-05-10T07:08:05.602Z,25.00
2023-05-10T07:09:05.642Z,13.90
2023-05-10T07:10:05.695Z,1.47
2023-05-10T07:11:05.692Z,0.00
2023-05-10T07:12:06.827Z,0.00
2023-05-10T07:13:05.842Z,3.74
2023-05-10T07:14:05.793Z,7.49
2023-05-10T07:15:05.850Z,20.24
2023-05-10T07:16:05.935Z,25.00
2023-05-10T07:17:05.946Z,25.00
2023-05-10T07:18:06.160Z,25.00
2023-05-10T07:19:06.003Z,25.83
2023-05-10T07:20:06.036Z,25.00
2023-05-10T07:21:06.154Z,25.48
2023-05-10T07:22:06.278Z,25.00
2023-05-10T07:23:06.148Z,25.00
2023-05-10T07:24:06.179Z,23.24
2023-05-10T07:25:06.230Z,27.75
2023-05-10T07:26:06.270Z,25.00
2023-05-10T07:27:06.527Z,27.47
2023-05-10T07:28:06.331Z,16.97
2023-05-10T07:29:06.421Z,76.76
2023-05-10T07:30:06.409Z,112.20
2023-05-10T07:31:06.474Z,113.65
2023-05-10T07:32:06.552Z,100.69
2023-05-10T07:33:06.748Z,90.78
2023-05-10T07:34:06.558Z,77.24
2023-05-10T07:35:06.580Z,74.45
2023-05-10T07:36:06.595Z,81.49
2023-05-10T07:37:06.625Z,83.42
2023-05-10T07:38:06.622Z,84.62
2023-05-10T07:39:06.637Z,86.11
2023-05-10T07:40:06.648Z,86.43
2023-05-10T07:41:06.656Z,82.34
2023-05-10T07:42:06.682Z,73.01
2023-05-10T07:43:06.643Z,74.62
2023-05-10T07:44:06.654Z,80.39
2023-05-10T07:45:06.666Z,84.89
2023-05-10T07:46:06.707Z,81.76
2023-05-10T07:47:06.716Z,85.77
2023-05-10T07:48:06.706Z,89.53
2023-05-10T07:49:06.663Z,88.21
2023-05-10T07:50:07.913Z,91.19
2023-05-10T07:51:06.649Z,91.66
2023-05-10T07:52:06.686Z,92.55
2023-05-10T07:53:06.752Z,96.39
2023-05-10T07:54:06.795Z,95.06
2023-05-10T07:55:07.026Z,93.54
2023-05-10T07:56:06.857Z,92.84
2023-05-10T07:57:06.881Z,90.45
2023-05-10T07:58:06.952Z,91.99
2023-05-10T07:59:07.033Z,89.86
2023-05-10T08:00:07.613Z,94.51
2023-05-10T08:01:07.189Z,93.89
2023-05-10T08:02:07.237Z,80.84
2023-05-10T08:03:07.307Z,80.68
2023-05-10T08:04:07.453Z,83.92
2023-05-10T08:05:07.384Z,85.72
2023-05-10T08:06:07.454Z,89.63
2023-05-10T08:07:07.508Z,90.73
2023-05-10T08:08:07.574Z,91.90
2023-05-10T08:09:07.644Z,90.31
2023-05-10T08:10:07.693Z,90.33
2023-05-10T08:11:07.728Z,79.46
2023-05-10T08:12:07.780Z,77.85
2023-05-10T08:13:07.829Z,81.41
2023-05-10T08:14:07.896Z,77.66
2023-05-10T08:15:08.010Z,79.48
2023-05-10T08:16:08.045Z,82.34
2023-05-10T08:17:08.048Z,84.97
2023-05-10T08:18:08.118Z,82.45
2023-05-10T08:19:08.185Z,84.08
2023-05-10T08:20:08.552Z,91.06
2023-05-10T08:21:08.222Z,47.93
2023-05-10T08:22:08.291Z,0.00
2023-05-10T08:23:08.337Z,0.00
2023-05-10T08:24:08.387Z,26.03
2023-05-10T08:25:08.311Z,30.63
2023-05-10T08:26:08.344Z,44.29
2023-05-10T08:27:08.330Z,52.18
2023-05-10T08:28:09.919Z,56.13
2023-05-10T08:29:08.359Z,89.91
2023-05-10T08:30:08.368Z,101.10
2023-05-10T08:31:09.035Z,111.00
2023-05-10T08:32:08.360Z,113.33
2023-05-10T08:33:08.453Z,111.44
2023-05-10T08:34:09.045Z,122.40
2023-05-10T08:35:09.065Z,123.03
2023-05-10T08:36:08.597Z,126.23
2023-05-10T08:37:08.662Z,131.62
2023-05-10T08:38:08.727Z,146.13
2023-05-10T08:39:16.207Z,166.65
2023-05-10T08:40:10.018Z,124.41
2023-05-10T08:41:08.864Z,131.94
2023-05-10T08:42:08.754Z,146.92
2023-05-10T08:43:08.760Z,167.71
2023-05-10T08:44:08.749Z,190.13
2023-05-10T08:45:09.073Z,200.24
2023-05-10T08:46:08.827Z,204.49
2023-05-10T08:47:08.844Z,210.39
2023-05-10T08:48:08.786Z,218.25
2023-05-10T08:49:08.838Z,211.71
2023-05-10T08:50:08.846Z,211.73
2023-05-10T08:51:09.010Z,210.61
2023-05-10T08:52:08.954Z,212.18
2023-05-10T08:53:09.020Z,215.14
2023-05-10T08:54:09.037Z,213.98
2023-05-10T08:55:09.239Z,205.75
2023-05-10T08:56:09.141Z,209.70
2023-05-10T08:57:09.173Z,208.61
2023-05-10T08:58:09.210Z,209.93
2023-05-10T08:59:09.306Z,206.66
2023-05-10T09:00:09.317Z,204.34
2023-05-10T09:02:09.429Z,201.36
2023-05-10T09:03:09.516Z,200.53
2023-05-10T09:04:09.643Z,200.00
2023-05-10T09:05:09.658Z,189.16
2023-05-10T09:06:09.708Z,176.16
2023-05-10T09:07:09.774Z,184.93
2023-05-10T09:08:09.791Z,185.06
2023-05-10T09:09:09.729Z,185.02
2023-05-10T09:10:10.043Z,162.26
2023-05-10T09:11:09.743Z,162.44
2023-05-10T09:12:09.740Z,159.53
2023-05-10T09:13:09.814Z,157.89
2023-05-10T09:14:09.736Z,148.64
2023-05-10T09:15:10.058Z,141.52
2023-05-10T09:16:20.421Z,108.58
2023-05-10T09:17:10.721Z,109.19
2023-05-10T09:18:09.862Z,111.72
2023-05-10T09:19:09.838Z,113.84
2023-05-10T09:20:09.732Z,120.67
2023-05-10T09:21:09.657Z,128.34
2023-05-10T09:22:09.753Z,134.10
2023-05-10T09:23:09.671Z,137.29
2023-05-10T09:24:09.647Z,141.29
2023-05-10T09:25:10.062Z,137.13
2023-05-10T09:26:10.045Z,116.84
2023-05-10T09:27:09.749Z,104.87
2023-05-10T09:28:09.828Z,97.18
2023-05-10T09:29:09.879Z,89.31
2023-05-10T09:30:10.047Z,91.13
2023-05-10T09:31:10.152Z,101.49
2023-05-10T09:32:10.039Z,117.81
2023-05-10T09:33:10.079Z,125.92
2023-05-10T09:34:10.150Z,137.64
2023-05-10T09:35:10.193Z,139.40
2023-05-10T09:36:10.590Z,138.59
2023-05-10T09:37:10.278Z,140.75
2023-05-10T09:38:10.346Z,145.07
2023-05-10T09:39:10.373Z,147.56
2023-05-10T09:40:10.429Z,143.06
2023-05-10T09:41:10.466Z,140.79
2023-05-10T09:42:10.553Z,134.90
2023-05-10T09:43:10.564Z,132.28
2023-05-10T09:44:10.604Z,131.66
2023-05-10T09:45:10.664Z,129.60
2023-05-10T09:46:11.101Z,127.08
2023-05-10T09:47:10.751Z,122.73
2023-05-10T09:48:10.889Z,110.09
2023-05-10T09:49:10.884Z,109.64
2023-05-10T09:50:10.941Z,84.76
2023-05-10T09:51:10.993Z,89.14
2023-05-10T09:52:11.004Z,86.04
2023-05-10T09:53:11.061Z,83.20
2023-05-10T09:54:11.127Z,83.95
2023-05-10T09:55:11.179Z,85.70
2023-05-10T09:56:11.220Z,89.48
2023-05-10T09:57:11.272Z,85.92
2023-05-10T09:58:11.622Z,82.35
2023-05-10T09:59:11.370Z,77.47
2023-05-10T10:00:11.451Z,75.22
2023-05-10T10:01:11.534Z,78.65
2023-05-10T10:02:11.538Z,76.64
2023-05-10T10:03:11.656Z,77.90
2023-05-10T10:04:11.653Z,76.55
2023-05-10T10:05:11.997Z,76.38
2023-05-10T10:06:22.591Z,75.05
2023-05-10T10:07:12.801Z,75.23
2023-05-10T10:08:11.785Z,71.80
2023-05-10T10:09:11.765Z,70.99
2023-05-10T10:10:11.780Z,73.46
2023-05-10T10:11:11.751Z,66.91
2023-05-10T10:12:11.752Z,67.55
2023-05-10T10:13:11.731Z,70.28
2023-05-10T10:14:11.753Z,64.80
2023-05-10T10:15:11.747Z,63.59
2023-05-10T10:16:12.098Z,64.97
2023-05-10T10:17:11.861Z,68.96
2023-05-10T10:18:11.936Z,67.50
2023-05-10T10:19:12.002Z,66.90
2023-05-10T10:20:12.312Z,16.38
2023-05-10T10:21:12.571Z,0.00
2023-05-10T10:22:12.105Z,0.00
2023-05-10T10:23:12.147Z,0.00
2023-05-10T10:24:12.207Z,0.00
2023-05-10T10:25:12.205Z,0.00
2023-05-10T10:26:12.587Z,0.00
2023-05-10T10:27:12.206Z,0.00
2023-05-10T10:28:12.244Z,27.88
2023-05-10T10:29:12.247Z,59.39
2023-05-10T10:30:12.226Z,84.95
2023-05-10T10:31:12.291Z,99.33
2023-05-10T10:32:12.290Z,121.84
2023-05-10T10:33:20.643Z,151.42
2023-05-10T10:34:13.345Z,152.29
2023-05-10T10:35:12.359Z,155.81
2023-05-10T10:36:12.578Z,155.80
2023-05-10T10:37:12.323Z,158.61
2023-05-10T10:38:12.322Z,190.20
2023-05-10T10:39:12.327Z,211.32
2023-05-10T10:40:12.310Z,216.84
2023-05-10T10:41:12.335Z,235.71
2023-05-10T10:42:12.459Z,237.47
2023-05-10T10:43:12.290Z,243.67
2023-05-10T10:44:12.285Z,215.20
2023-05-10T10:45:12.326Z,243.35
2023-05-10T10:46:12.307Z,243.30
2023-05-10T10:47:12.327Z,245.81
2023-05-10T10:48:12.277Z,220.12
2023-05-10T10:49:12.232Z,206.41
2023-05-10T10:50:12.270Z,209.02
2023-05-10T10:51:12.887Z,229.46
2023-05-10T10:52:12.218Z,239.84
2023-05-10T10:53:12.279Z,218.47
2023-05-10T10:54:12.230Z,235.85
2023-05-10T10:55:12.220Z,221.19
2023-05-10T10:56:12.255Z,183.99
2023-05-10T10:57:12.181Z,188.61
2023-05-10T10:58:12.186Z,178.16
2023-05-10T10:59:12.160Z,163.33
2023-05-10T11:00:12.164Z,190.01
2023-05-10T11:01:12.229Z,167.26
2023-05-10T11:02:12.191Z,189.36
2023-05-10T11:03:12.255Z,185.42
2023-05-10T11:04:12.264Z,184.17
2023-05-10T11:05:12.230Z,192.63
2023-05-10T11:06:12.220Z,197.55
2023-05-10T11:07:12.363Z,206.20
2023-05-10T11:08:12.249Z,227.43
2023-05-10T11:09:12.258Z,235.84
2023-05-10T11:10:12.275Z,219.80
2023-05-10T11:11:12.329Z,231.09
2023-05-10T11:12:12.305Z,222.91
2023-05-10T11:13:12.296Z,223.09
2023-05-10T11:14:12.331Z,152.22
2023-05-10T11:15:12.351Z,86.84
2023-05-10T11:16:12.679Z,67.80
2023-05-10T11:17:12.510Z,63.26
2023-05-10T11:18:12.558Z,52.05
2023-05-10T11:19:12.651Z,59.45
2023-05-10T11:20:12.648Z,76.00
2023-05-10T11:21:12.719Z,58.22
2023-05-10T11:22:12.762Z,50.21
2023-05-10T11:23:12.829Z,56.42
2023-05-10T11:24:12.881Z,57.26
2023-05-10T11:25:12.944Z,39.88
2023-05-10T11:26:13.017Z,24.86
2023-05-10T11:27:13.049Z,27.84
2023-05-10T11:28:13.134Z,24.00
2023-05-10T11:29:13.172Z,23.82
2023-05-10T11:30:13.248Z,25.00
2023-05-10T11:31:13.301Z,28.00
2023-05-10T11:32:13.339Z,31.59
2023-05-10T11:33:13.395Z,26.22
2023-05-10T11:34:13.432Z,24.94
2023-05-10T11:35:13.494Z,25.00
2023-05-10T11:36:13.543Z,20.23
2023-05-10T11:37:13.605Z,31.70
2023-05-10T11:38:13.650Z,29.63
2023-05-10T11:39:13.735Z,33.94
2023-05-10T11:40:13.839Z,30.80
2023-05-10T11:41:13.849Z,28.59
2023-05-10T11:42:13.901Z,28.05
2023-05-10T11:43:13.964Z,27.68
2023-05-10T11:44:14.017Z,26.77
2023-05-10T11:45:14.069Z,28.23
2023-05-10T11:46:14.133Z,25.36
2023-05-10T11:47:14.195Z,30.18
2023-05-10T11:48:14.286Z,32.22
2023-05-10T11:49:14.295Z,31.30
2023-05-10T11:50:14.400Z,30.12
2023-05-10T11:51:14.408Z,32.06
2023-05-10T11:52:14.425Z,34.91
2023-05-10T11:53:14.444Z,36.25
2023-05-10T11:54:14.466Z,33.39
2023-05-10T11:55:14.503Z,37.48
2023-05-10T11:56:14.547Z,37.52
2023-05-10T11:57:14.562Z,25.00
2023-05-10T11:58:14.603Z,29.98
2023-05-10T11:59:14.642Z,30.99
2023-05-10T12:00:14.995Z,31.35
2023-05-10T12:01:14.693Z,36.13
2023-05-10T12:02:14.814Z,42.07
2023-05-10T12:03:14.839Z,45.48
2023-05-10T12:04:14.955Z,40.95
2023-05-10T12:05:14.784Z,41.23
2023-05-10T12:06:15.115Z,68.91
2023-05-10T12:07:14.808Z,98.62
2023-05-10T12:08:14.811Z,116.84
2023-05-10T12:09:14.807Z,118.91
2023-05-10T12:10:14.903Z,141.30
2023-05-10T12:11:15.132Z,139.44
2023-05-10T12:12:14.923Z,136.66
2023-05-10T12:13:15.010Z,128.88
2023-05-10T12:14:15.057Z,132.79
2023-05-10T12:15:15.116Z,142.20
2023-05-10T12:16:15.648Z,150.51
2023-05-10T12:17:15.220Z,150.32
2023-05-10T12:18:15.353Z,157.28
2023-05-10T12:19:15.334Z,165.32
2023-05-10T12:20:15.763Z,180.33
2023-05-10T12:21:15.470Z,201.63
2023-05-10T12:22:15.481Z,228.69
2023-05-10T12:23:15.575Z,218.36
2023-05-10T12:24:15.597Z,216.09
2023-05-10T12:25:15.644Z,218.40
2023-05-10T12:26:15.694Z,218.14
2023-05-10T12:27:15.701Z,216.31
2023-05-10T12:28:15.754Z,226.99
2023-05-10T12:29:15.809Z,231.69
2023-05-10T12:30:15.929Z,238.14
2023-05-10T12:31:15.910Z,242.02
2023-05-10T12:32:16.076Z,244.11
2023-05-10T12:33:16.232Z,243.60
2023-05-10T12:34:16.009Z,244.49
2023-05-10T12:35:16.074Z,244.50
2023-05-10T12:36:16.111Z,243.45
2023-05-10T12:37:16.122Z,245.32
2023-05-10T12:38:16.158Z,245.21
2023-05-10T12:39:16.194Z,244.13
2023-05-10T12:40:16.497Z,244.78
2023-05-10T12:41:16.299Z,246.72
2023-05-10T12:42:16.272Z,250.00
2023-05-10T12:43:16.323Z,249.94
2023-05-10T12:44:16.368Z,250.00
2023-05-10T12:45:16.411Z,250.00
2023-05-10T12:46:16.513Z,250.00
2023-05-10T12:47:16.451Z,249.66
2023-05-10T12:48:16.484Z,249.95
2023-05-10T12:49:16.519Z,250.00
2023-05-10T12:50:16.824Z,250.00
2023-05-10T12:51:16.762Z,249.20
2023-05-10T12:52:16.640Z,248.28
2023-05-10T12:53:16.660Z,248.74
2023-05-10T12:54:16.697Z,249.67
2023-05-10T12:55:16.721Z,249.19
2023-05-10T12:56:16.776Z,249.81
2023-05-10T12:57:16.797Z,244.53
2023-05-10T12:58:31.423Z,246.55
2023-05-10T12:59:17.816Z,246.68
2023-05-10T13:00:16.988Z,241.58
2023-05-10T13:01:16.881Z,243.81
2023-05-10T13:02:16.814Z,247.08
2023-05-10T13:03:16.788Z,249.70
2023-05-10T13:04:16.825Z,250.00
2023-05-10T13:05:16.757Z,247.76
2023-05-10T13:06:16.798Z,248.27
2023-05-10T13:07:16.740Z,247.28
2023-05-10T13:08:16.757Z,248.72
2023-05-10T13:09:16.725Z,247.91
2023-05-10T13:10:17.028Z,247.44
2023-05-10T13:11:16.757Z,239.99
2023-05-10T13:12:16.711Z,236.97
2023-05-10T13:13:16.769Z,232.81
2023-05-10T13:14:16.812Z,232.91
2023-05-10T13:15:16.819Z,228.69
2023-05-10T13:16:17.529Z,225.77
2023-05-10T13:17:17.182Z,224.40
2023-05-10T13:18:16.947Z,215.51
2023-05-10T13:19:17.103Z,209.52
2023-05-10T13:20:17.311Z,208.20
2023-05-10T13:21:17.037Z,204.18
2023-05-10T13:22:22.922Z,211.22
2023-05-10T13:23:18.053Z,211.48
2023-05-10T13:24:17.044Z,211.76
2023-05-10T13:25:17.034Z,208.78
2023-05-10T13:26:17.036Z,203.95
2023-05-10T13:27:17.027Z,201.32
2023-05-10T13:28:17.011Z,203.24
2023-05-10T13:29:16.987Z,207.57
2023-05-10T13:30:17.206Z,216.02
2023-05-10T13:31:17.115Z,212.62
2023-05-10T13:32:16.987Z,208.65
2023-05-10T13:33:17.009Z,213.36
2023-05-10T13:34:16.990Z,208.62
2023-05-10T13:35:16.965Z,210.38
2023-05-10T13:36:16.953Z,202.94
2023-05-10T13:37:16.968Z,213.25
2023-05-10T13:38:17.001Z,205.66
2023-05-10T13:39:17.046Z,208.15
2023-05-10T13:40:17.360Z,213.79
2023-05-10T13:41:17.113Z,229.16
2023-05-10T13:42:17.157Z,231.48
2023-05-10T13:43:17.179Z,222.37
2023-05-10T13:44:17.252Z,218.75
2023-05-10T13:45:17.423Z,215.85
2023-05-10T13:46:17.318Z,222.75
2023-05-10T13:47:17.304Z,216.15
2023-05-10T13:48:17.359Z,222.15
2023-05-10T13:49:17.678Z,217.02
2023-05-10T13:50:17.682Z,219.91
2023-05-10T13:51:17.467Z,219.02
2023-05-10T13:52:17.496Z,219.97
2023-05-10T13:53:17.521Z,215.95
2023-05-10T13:54:17.566Z,217.25
2023-05-10T13:55:17.875Z,219.69
2023-05-10T13:56:17.661Z,217.09
2023-05-10T13:57:17.732Z,217.73
2023-05-10T13:58:17.754Z,218.15
2023-05-10T13:59:17.834Z,216.35
2023-05-10T14:00:18.188Z,218.02
2023-05-10T14:01:17.878Z,222.68
2023-05-10T14:02:18.227Z,220.53
2023-05-10T14:03:18.100Z,218.95
2023-05-10T14:04:17.959Z,217.29
2023-05-10T14:05:18.901Z,219.38
2023-05-10T14:06:18.009Z,220.45
2023-05-10T14:07:18.181Z,219.55
2023-05-10T14:08:17.994Z,218.49
2023-05-10T14:09:17.961Z,215.82
2023-05-10T14:10:17.974Z,217.20
2023-05-10T14:11:17.960Z,215.91
2023-05-10T14:12:18.047Z,216.23
2023-05-10T14:13:17.954Z,214.51
2023-05-10T14:14:17.951Z,213.01
2023-05-10T14:15:18.203Z,212.69
2023-05-10T14:16:17.940Z,205.21
2023-05-10T14:17:17.912Z,210.21
2023-05-10T14:18:17.953Z,204.51
2023-05-10T14:19:17.904Z,206.69
2023-05-10T14:20:17.903Z,208.48
2023-05-10T14:21:17.898Z,205.08
2023-05-10T14:22:17.890Z,206.90
2023-05-10T14:23:17.876Z,199.13
2023-05-10T14:24:17.884Z,194.11
2023-05-10T14:25:18.094Z,196.98
2023-05-10T14:26:17.845Z,199.27
2023-05-10T14:27:17.855Z,195.38
2023-05-10T14:28:17.924Z,195.39
2023-05-10T14:29:17.834Z,181.80
2023-05-10T14:30:17.843Z,180.17
2023-05-10T14:31:17.978Z,189.10
2023-05-10T14:32:17.939Z,177.86
2023-05-10T14:33:17.813Z,179.14
2023-05-10T14:34:17.797Z,177.95
2023-05-10T14:35:19.710Z,174.80
2023-05-10T14:36:17.813Z,158.70
2023-05-10T14:37:17.783Z,157.35
2023-05-10T14:38:17.785Z,153.81
2023-05-10T14:39:17.829Z,156.26
2023-05-10T14:40:17.882Z,152.89
2023-05-10T14:41:17.908Z,149.52
2023-05-10T14:42:17.949Z,144.55
2023-05-10T14:43:17.991Z,147.60
2023-05-10T14:44:18.041Z,143.31
2023-05-10T14:45:18.266Z,140.73
2023-05-10T14:46:18.196Z,137.80
2023-05-10T14:47:18.163Z,135.27
2023-05-10T14:48:18.195Z,136.85
2023-05-10T14:49:18.254Z,134.19
2023-05-10T14:50:32.340Z,133.25
2023-05-10T14:51:19.272Z,133.33
2023-05-10T14:52:18.289Z,133.08
2023-05-10T14:53:18.260Z,130.51
2023-05-10T14:54:18.248Z,133.32
2023-05-10T14:55:18.428Z,128.79
2023-05-10T14:56:18.234Z,130.38
2023-05-10T14:57:18.220Z,129.71
2023-05-10T14:58:18.204Z,127.85
2023-05-10T14:59:18.194Z,130.12
2023-05-10T15:00:18.364Z,129.40
2023-05-10T15:01:18.212Z,132.00
2023-05-10T15:02:18.215Z,132.38
2023-05-10T15:03:18.350Z,132.22
2023-05-10T15:04:18.295Z,134.51
2023-05-10T15:05:18.586Z,136.68
2023-05-10T15:06:18.385Z,132.23
2023-05-10T15:07:18.447Z,128.25
2023-05-10T15:08:18.488Z,124.62
2023-05-10T15:09:18.508Z,123.05
2023-05-10T15:10:18.561Z,120.71
2023-05-10T15:11:18.612Z,121.99
2023-05-10T15:12:18.693Z,119.60
2023-05-10T15:13:18.744Z,124.14
2023-05-10T15:14:18.785Z,124.72
2023-05-10T15:15:19.023Z,120.66
2023-05-10T15:16:18.923Z,116.48
2023-05-10T15:17:18.911Z,116.39
2023-05-10T15:18:19.059Z,114.64
2023-05-10T15:19:19.039Z,112.02
2023-05-10T15:20:19.060Z,110.78
2023-05-10T15:21:19.160Z,113.41
2023-05-10T15:22:19.166Z,111.99
2023-05-10T15:23:19.211Z,111.57
2023-05-10T15:24:19.261Z,110.92
2023-05-10T15:25:19.494Z,108.14
2023-05-10T15:26:19.352Z,108.53
2023-05-10T15:27:19.407Z,108.51
2023-05-10T15:28:19.443Z,109.19
2023-05-10T15:29:19.513Z,107.41
2023-05-10T15:30:19.553Z,109.24
2023-05-10T15:31:19.625Z,110.12
2023-05-10T15:32:19.650Z,108.27
2023-05-10T15:33:19.709Z,107.24
2023-05-10T15:34:19.799Z,106.07
2023-05-10T15:35:19.810Z,105.55
2023-05-10T15:36:19.856Z,104.29
2023-05-10T15:37:19.924Z,102.95
2023-05-10T15:38:19.943Z,103.41
2023-05-10T15:39:20.000Z,101.49
2023-05-10T15:40:20.055Z,101.83
2023-05-10T15:41:20.115Z,104.07
2023-05-10T15:42:20.149Z,103.61
2023-05-10T15:43:20.219Z,101.80
2023-05-10T15:44:20.257Z,101.18
2023-05-10T15:45:20.340Z,100.20
2023-05-10T15:46:20.364Z,97.17
2023-05-10T15:47:20.419Z,100.53
2023-05-10T15:48:20.504Z,99.89
2023-05-10T15:49:20.488Z,98.00
2023-05-10T15:50:20.560Z,99.24
2023-05-10T15:51:20.606Z,99.89
2023-05-10T15:52:20.665Z,100.65
2023-05-10T15:53:20.703Z,98.19
2023-05-10T15:54:20.769Z,97.56
2023-05-10T15:55:20.788Z,97.64
2023-05-10T15:56:20.851Z,94.83
2023-05-10T15:57:20.889Z,94.87
2023-05-10T15:58:20.953Z,92.22
2023-05-10T15:59:21.027Z,95.57
2023-05-10T16:00:21.041Z,98.35
2023-05-10T16:01:21.123Z,100.02
2023-05-10T16:02:21.205Z,102.47
2023-05-10T16:03:21.243Z,102.19
2023-05-10T16:04:21.273Z,104.17
2023-05-10T16:05:21.303Z,103.72
2023-05-10T16:06:21.366Z,101.78
2023-05-10T16:07:21.482Z,99.45
2023-05-10T16:08:21.464Z,94.76
2023-05-10T16:09:21.499Z,93.62
2023-05-10T16:10:21.544Z,97.07
2023-05-10T16:11:21.600Z,99.32
2023-05-10T16:12:21.679Z,102.55
2023-05-10T16:13:21.683Z,103.49
2023-05-10T16:14:21.739Z,104.03
2023-05-10T16:15:21.819Z,100.46
2023-05-10T16:16:21.874Z,101.39
2023-05-10T16:17:21.890Z,102.23
2023-05-10T16:18:22.000Z,104.22
2023-05-10T16:19:22.062Z,103.91
2023-05-10T16:20:22.087Z,102.38
2023-05-10T16:21:22.090Z,106.12
2023-05-10T16:22:22.153Z,104.90
2023-05-10T16:23:22.193Z,107.15
2023-05-10T16:24:22.263Z,106.39
2023-05-10T16:25:22.305Z,104.61
2023-05-10T16:26:22.374Z,105.13
2023-05-10T16:27:22.441Z,104.40
2023-05-10T16:28:22.554Z,103.93
2023-05-10T16:29:22.543Z,103.43
2023-05-10T16:30:23.996Z,100.64
2023-05-10T16:31:22.676Z,102.28
2023-05-10T16:32:22.717Z,104.91
2023-05-10T16:33:22.808Z,101.36
2023-05-10T16:34:22.913Z,105.32
2023-05-10T16:35:22.938Z,105.76
2023-05-10T16:36:22.916Z,104.06
2023-05-10T16:37:22.978Z,104.05
2023-05-10T16:38:23.024Z,102.31
2023-05-10T16:39:23.073Z,105.74
2023-05-10T16:40:23.142Z,112.22
2023-05-10T16:41:23.188Z,112.40
2023-05-10T16:42:23.259Z,110.93
2023-05-10T16:43:24.704Z,110.74
2023-05-10T16:44:25.728Z,106.32
2023-05-10T16:45:23.292Z,106.51
2023-05-10T16:46:23.313Z,106.65
2023-05-10T16:47:23.313Z,107.11
2023-05-10T16:48:23.280Z,106.32
2023-05-10T16:49:25.301Z,104.52
2023-05-10T16:50:23.283Z,106.33
2023-05-10T16:51:23.237Z,105.04
2023-05-10T16:52:23.245Z,106.02
2023-05-10T16:53:23.239Z,107.20
2023-05-10T16:54:23.232Z,106.82
2023-05-10T16:55:25.519Z,103.06
2023-05-10T16:56:23.216Z,103.27
2023-05-10T16:57:23.213Z,103.09
2023-05-10T16:58:23.223Z,103.50
2023-05-10T16:59:23.210Z,104.49
2023-05-10T17:00:23.194Z,100.00
2023-05-10T17:01:25.689Z,97.05
2023-05-10T17:02:23.350Z,97.24
2023-05-10T17:03:23.427Z,97.48
2023-05-10T17:04:23.172Z,97.78
2023-05-10T17:05:23.209Z,100.83
2023-05-10T17:06:23.157Z,101.59
2023-05-10T17:07:26.056Z,96.07
2023-05-10T17:08:23.228Z,96.09
2023-05-10T17:09:23.170Z,92.89
2023-05-10T17:10:23.229Z,91.38
2023-05-10T17:11:23.246Z,92.32
2023-05-10T17:12:23.236Z,94.58
2023-05-10T17:13:23.111Z,92.66
2023-05-10T17:14:23.096Z,93.59
2023-05-10T17:15:23.142Z,95.72
2023-05-10T17:16:23.135Z,98.98
2023-05-10T17:17:23.129Z,95.13
2023-05-10T17:18:23.137Z,92.35
2023-05-10T17:19:25.552Z,93.67
2023-05-10T17:20:23.057Z,93.96
2023-05-10T17:21:23.056Z,94.05
2023-05-10T17:22:23.022Z,95.17
2023-05-10T17:23:23.033Z,94.81
2023-05-10T17:24:23.033Z,97.03
2023-05-10T17:25:23.009Z,97.77
2023-05-10T17:26:23.021Z,99.27
2023-05-10T17:27:22.996Z,96.91
2023-05-10T17:28:22.992Z,97.83
2023-05-10T17:29:23.002Z,98.29
2023-05-10T17:30:22.983Z,96.06
2023-05-10T17:31:22.983Z,95.68
2023-05-10T17:32:23.044Z,94.64
2023-05-10T17:33:22.967Z,95.66
2023-05-10T17:34:22.957Z,92.71
2023-05-10T17:35:22.927Z,92.91
2023-05-10T17:36:22.954Z,93.49
2023-05-10T17:37:22.927Z,99.56
2023-05-10T17:38:22.929Z,98.45
2023-05-10T17:39:22.901Z,95.87
2023-05-10T17:40:22.892Z,95.28
2023-05-10T17:41:22.899Z,98.76
2023-05-10T17:42:22.899Z,106.51
2023-05-10T17:43:22.888Z,107.44
2023-05-10T17:44:22.879Z,104.09
2023-05-10T17:45:22.892Z,97.92
2023-05-10T17:46:22.941Z,99.99
2023-05-10T17:47:22.870Z,101.27
2023-05-10T17:48:22.850Z,104.65
2023-05-10T17:49:22.873Z,107.58
2023-05-10T17:50:22.824Z,107.31
2023-05-10T17:51:22.820Z,114.77
2023-05-10T17:52:22.851Z,118.53
2023-05-10T17:53:22.889Z,122.13
2023-05-10T17:54:22.950Z,115.28
2023-05-10T17:55:23.030Z,112.84
2023-05-10T17:56:23.056Z,113.43
2023-05-10T17:57:23.100Z,109.89
2023-05-10T17:58:23.169Z,106.39
2023-05-10T17:59:23.211Z,107.06
2023-05-10T18:00:23.286Z,107.43
2023-05-10T18:01:23.378Z,116.46
2023-05-10T18:02:23.425Z,125.59
2023-05-10T18:03:23.484Z,129.42
2023-05-10T18:04:23.721Z,132.76
2023-05-10T18:05:23.824Z,125.54
2023-05-10T18:06:23.699Z,116.12
2023-05-10T18:07:23.749Z,111.43
2023-05-10T18:08:23.776Z,106.83
2023-05-10T18:09:23.794Z,110.29
2023-05-10T18:10:23.848Z,120.80
2023-05-10T18:11:23.906Z,123.56
2023-05-10T18:12:23.971Z,119.84
2023-05-10T18:13:24.040Z,106.85
2023-05-10T18:14:39.005Z,101.42
2023-05-10T18:15:25.084Z,101.47
2023-05-10T18:16:24.095Z,101.83
2023-05-10T18:17:24.056Z,105.84
2023-05-10T18:18:24.112Z,116.68
2023-05-10T18:19:24.045Z,133.63
2023-05-10T18:20:24.046Z,127.33
2023-05-10T18:21:24.062Z,116.28
2023-05-10T18:22:24.015Z,110.72
2023-05-10T18:23:24.031Z,112.82
2023-05-10T18:24:34.676Z,123.44
2023-05-10T18:25:25.138Z,122.02
2023-05-10T18:26:24.089Z,123.77
2023-05-10T18:27:24.075Z,113.66
2023-05-10T18:28:24.075Z,103.60
2023-05-10T18:29:24.057Z,96.68
2023-05-10T18:30:24.031Z,112.33
2023-05-10T18:31:24.081Z,109.66
2023-05-10T18:32:24.017Z,106.37
2023-05-10T18:33:24.040Z,118.03
2023-05-10T18:34:24.019Z,117.72
2023-05-10T18:35:24.086Z,110.08
2023-05-10T18:36:24.077Z,105.08
2023-05-10T18:37:24.114Z,99.11
2023-05-10T18:38:24.128Z,103.68
2023-05-10T18:39:24.162Z,104.67
2023-05-10T18:40:24.173Z,109.33
2023-05-10T18:41:24.202Z,100.43
2023-05-10T18:42:24.241Z,92.62
2023-05-10T18:43:24.282Z,102.63
2023-05-10T18:44:24.308Z,93.94
2023-05-10T18:45:24.351Z,86.78
2023-05-10T18:46:24.420Z,93.82
2023-05-10T18:47:24.455Z,102.87
2023-05-10T18:48:24.472Z,99.96
2023-05-10T18:49:24.500Z,96.21
2023-05-10T18:50:24.534Z,95.04
2023-05-10T18:51:24.569Z,94.15
2023-05-10T18:52:24.610Z,97.67
2023-05-10T18:53:24.642Z,94.94
2023-05-10T18:54:24.685Z,93.01
2023-05-10T18:55:24.732Z,100.03
2023-05-10T18:56:24.798Z,105.25
2023-05-10T18:57:24.849Z,97.57
2023-05-10T18:58:24.874Z,96.53
2023-05-10T18:59:24.872Z,100.27
2023-05-10T19:00:24.942Z,100.03
2023-05-10T19:01:24.995Z,97.36
2023-05-10T19:02:25.036Z,95.12
2023-05-10T19:03:25.047Z,99.30
2023-05-10T19:04:25.200Z,97.95
2023-05-10T19:05:25.131Z,91.48
2023-05-10T19:06:25.142Z,90.49
2023-05-10T19:07:25.187Z,88.99
2023-05-10T19:08:25.247Z,90.46
2023-05-10T19:09:25.254Z,89.88
2023-05-10T19:10:25.314Z,93.80
2023-05-10T19:11:25.344Z,98.62
2023-05-10T19:12:25.356Z,96.84
2023-05-10T19:13:25.413Z,101.30
2023-05-10T19:14:25.460Z,97.23
2023-05-10T19:15:25.583Z,93.70
2023-05-10T19:16:26.035Z,93.31
2023-05-10T19:17:25.596Z,95.94
2023-05-10T19:18:27.129Z,95.69
2023-05-10T19:19:25.648Z,93.08
2023-05-10T19:20:25.690Z,90.00
2023-05-10T19:21:25.751Z,89.30
2023-05-10T19:22:44.902Z,95.72
2023-05-10T19:23:26.795Z,95.90
2023-05-10T19:24:25.871Z,95.96
2023-05-10T19:25:25.722Z,96.65
2023-05-10T19:26:25.670Z,98.15
2023-05-10T19:27:25.660Z,102.03
2023-05-10T19:28:25.676Z,100.57
2023-05-10T19:29:25.828Z,101.38
2023-05-10T19:30:25.702Z,101.12
2023-05-10T19:31:25.701Z,97.97
2023-05-10T19:32:25.749Z,95.01
2023-05-10T19:33:25.690Z,96.75
2023-05-10T19:34:25.776Z,99.99
2023-05-10T19:35:25.740Z,96.15